sensor_id;sensor_type;location;lat;lon;timestamp;P1;durP1;ratioP1;P2;durP2;ratioP2
37201;SDS011;37799;52.390;6.136;2023-09-12T00:00:03;39.65;;;17.40;;
37201;SDS011;37799;52.390;6.136;2023-09-12T00:02:30;40.97;;;17.77;;
37201;SDS011;37799;52.390;6.136;2023-09-12T00:04:55;41.72;;;17.00;;
37201;SDS011;37799;52.390;6.136;2023-09-12T00:07:21;40.58;;;17.45;;
37201;SDS011;37799;52.390;6.136;2023-09-12T00:09:46;36.65;;;16.98;;
37201;SDS011;37799;52.390;6.136;2023-09-12T00:12:14;37.87;;;16.50;;
37201;SDS011;37799;52.390;6.136;2023-09-12T00:14:40;38.17;;;16.55;;
37201;SDS011;37799;52.390;6.136;2023-09-12T00:17:06;37.92;;;16.10;;
37201;SDS011;37799;52.390;6.136;2023-09-12T00:19:31;37.33;;;15.90;;
37201;SDS011;37799;52.390;6.136;2023-09-12T00:21:56;37.10;;;15.88;;
37201;SDS011;37799;52.390;6.136;2023-09-12T00:24:22;38.63;;;16.13;;
37201;SDS011;37799;52.390;6.136;2023-09-12T00:26:47;35.70;;;15.60;;
37201;SDS011;37799;52.390;6.136;2023-09-12T00:29:12;35.00;;;15.63;;
37201;SDS011;37799;52.390;6.136;2023-09-12T00:31:38;35.95;;;15.48;;
37201;SDS011;37799;52.390;6.136;2023-09-12T00:34:03;37.78;;;17.60;;
37201;SDS011;37799;52.390;6.136;2023-09-12T00:36:29;37.80;;;18.27;;
37201;SDS011;37799;52.390;6.136;2023-09-12T00:38:54;42.10;;;17.23;;
37201;SDS011;37799;52.390;6.136;2023-09-12T00:41:19;37.77;;;16.67;;
37201;SDS011;37799;52.390;6.136;2023-09-12T00:43:45;37.00;;;16.10;;
37201;SDS011;37799;52.390;6.136;2023-09-12T00:46:10;34.33;;;15.68;;
37201;SDS011;37799;52.390;6.136;2023-09-12T00:48:37;37.30;;;15.63;;
37201;SDS011;37799;52.390;6.136;2023-09-12T00:51:03;36.03;;;17.20;;
37201;SDS011;37799;52.390;6.136;2023-09-12T00:53:29;36.08;;;16.52;;
37201;SDS011;37799;52.390;6.136;2023-09-12T00:55:56;40.45;;;16.92;;
37201;SDS011;37799;52.390;6.136;2023-09-12T00:58:24;37.58;;;15.88;;
37201;SDS011;37799;52.390;6.136;2023-09-12T01:00:50;41.28;;;16.42;;
37201;SDS011;37799;52.390;6.136;2023-09-12T01:03:16;39.35;;;16.88;;
37201;SDS011;37799;52.390;6.136;2023-09-12T01:05:42;37.08;;;16.67;;
37201;SDS011;37799;52.390;6.136;2023-09-12T01:08:09;37.03;;;16.50;;
37201;SDS011;37799;52.390;6.136;2023-09-12T01:10:35;39.92;;;16.75;;
37201;SDS011;37799;52.390;6.136;2023-09-12T01:13:00;36.97;;;16.92;;
37201;SDS011;37799;52.390;6.136;2023-09-12T01:15:26;36.22;;;15.93;;
37201;SDS011;37799;52.390;6.136;2023-09-12T01:17:51;33.20;;;14.57;;
37201;SDS011;37799;52.390;6.136;2023-09-12T01:20:24;34.92;;;15.68;;
37201;SDS011;37799;52.390;6.136;2023-09-12T01:25:42;38.25;;;16.55;;
37201;SDS011;37799;52.390;6.136;2023-09-12T01:28:19;38.28;;;17.75;;
37201;SDS011;37799;52.390;6.136;2023-09-12T01:30:49;44.53;;;18.30;;
37201;SDS011;37799;52.390;6.136;2023-09-12T01:33:16;41.30;;;17.83;;
37201;SDS011;37799;52.390;6.136;2023-09-12T01:35:42;43.17;;;17.77;;
37201;SDS011;37799;52.390;6.136;2023-09-12T01:38:08;37.92;;;17.13;;
37201;SDS011;37799;52.390;6.136;2023-09-12T01:41:07;40.33;;;17.25;;
37201;SDS011;37799;52.390;6.136;2023-09-12T01:43:26;39.50;;;16.67;;
37201;SDS011;37799;52.390;6.136;2023-09-12T01:45:53;40.85;;;17.58;;
37201;SDS011;37799;52.390;6.136;2023-09-12T01:48:21;42.00;;;17.33;;
37201;SDS011;37799;52.390;6.136;2023-09-12T01:50:51;38.97;;;17.30;;
37201;SDS011;37799;52.390;6.136;2023-09-12T01:53:17;37.25;;;16.15;;
37201;SDS011;37799;52.390;6.136;2023-09-12T01:55:43;38.03;;;15.02;;
37201;SDS011;37799;52.390;6.136;2023-09-12T01:58:11;34.38;;;15.80;;
37201;SDS011;37799;52.390;6.136;2023-09-12T02:00:37;33.45;;;15.63;;
37201;SDS011;37799;52.390;6.136;2023-09-12T02:03:03;37.03;;;16.77;;
37201;SDS011;37799;52.390;6.136;2023-09-12T02:05:29;31.20;;;14.55;;
37201;SDS011;37799;52.390;6.136;2023-09-12T02:07:54;31.73;;;14.80;;
37201;SDS011;37799;52.390;6.136;2023-09-12T02:10:19;36.88;;;14.68;;
37201;SDS011;37799;52.390;6.136;2023-09-12T02:12:45;31.63;;;14.77;;
37201;SDS011;37799;52.390;6.136;2023-09-12T02:15:10;32.72;;;14.60;;
37201;SDS011;37799;52.390;6.136;2023-09-12T02:17:37;33.33;;;14.35;;
37201;SDS011;37799;52.390;6.136;2023-09-12T02:20:04;33.67;;;15.05;;
37201;SDS011;37799;52.390;6.136;2023-09-12T02:22:31;29.40;;;14.23;;
37201;SDS011;37799;52.390;6.136;2023-09-12T02:24:56;32.75;;;14.98;;
37201;SDS011;37799;52.390;6.136;2023-09-12T02:27:22;30.20;;;14.48;;
37201;SDS011;37799;52.390;6.136;2023-09-12T02:29:47;32.47;;;14.80;;
37201;SDS011;37799;52.390;6.136;2023-09-12T02:32:12;34.00;;;14.38;;
37201;SDS011;37799;52.390;6.136;2023-09-12T02:34:37;31.38;;;14.57;;
37201;SDS011;37799;52.390;6.136;2023-09-12T02:37:03;29.90;;;14.18;;
37201;SDS011;37799;52.390;6.136;2023-09-12T02:39:28;31.25;;;13.27;;
37201;SDS011;37799;52.390;6.136;2023-09-12T02:41:53;39.63;;;14.25;;
37201;SDS011;37799;52.390;6.136;2023-09-12T02:44:19;66.72;;;16.10;;
37201;SDS011;37799;52.390;6.136;2023-09-12T02:46:44;49.72;;;16.70;;
37201;SDS011;37799;52.390;6.136;2023-09-12T02:49:09;47.05;;;15.30;;
37201;SDS011;37799;52.390;6.136;2023-09-12T02:51:37;46.17;;;15.43;;
37201;SDS011;37799;52.390;6.136;2023-09-12T02:54:03;73.32;;;16.33;;
37201;SDS011;37799;52.390;6.136;2023-09-12T02:56:29;56.45;;;16.80;;
37201;SDS011;37799;52.390;6.136;2023-09-12T02:58:55;53.45;;;15.75;;
37201;SDS011;37799;52.390;6.136;2023-09-12T03:01:21;61.63;;;15.48;;
37201;SDS011;37799;52.390;6.136;2023-09-12T03:03:46;49.70;;;14.75;;
37201;SDS011;37799;52.390;6.136;2023-09-12T03:06:12;32.72;;;13.23;;
37201;SDS011;37799;52.390;6.136;2023-09-12T03:08:39;48.85;;;14.95;;
37201;SDS011;37799;52.390;6.136;2023-09-12T03:11:05;45.63;;;14.77;;
37201;SDS011;37799;52.390;6.136;2023-09-12T03:13:32;47.92;;;14.95;;
37201;SDS011;37799;52.390;6.136;2023-09-12T03:15:58;46.80;;;14.63;;
37201;SDS011;37799;52.390;6.136;2023-09-12T03:18:23;32.30;;;14.35;;
37201;SDS011;37799;52.390;6.136;2023-09-12T03:20:49;34.30;;;15.48;;
37201;SDS011;37799;52.390;6.136;2023-09-12T03:23:14;48.65;;;15.45;;
37201;SDS011;37799;52.390;6.136;2023-09-12T03:25:39;68.38;;;16.00;;
37201;SDS011;37799;52.390;6.136;2023-09-12T03:28:05;39.42;;;15.25;;
37201;SDS011;37799;52.390;6.136;2023-09-12T03:30:34;50.72;;;15.75;;
37201;SDS011;37799;52.390;6.136;2023-09-12T03:33:01;63.13;;;15.50;;
37201;SDS011;37799;52.390;6.136;2023-09-12T03:35:28;46.15;;;15.55;;
37201;SDS011;37799;52.390;6.136;2023-09-12T03:37:53;41.20;;;14.43;;
37201;SDS011;37799;52.390;6.136;2023-09-12T03:40:19;31.65;;;14.45;;
37201;SDS011;37799;52.390;6.136;2023-09-12T03:42:44;37.22;;;15.48;;
37201;SDS011;37799;52.390;6.136;2023-09-12T03:45:10;35.83;;;14.50;;
37201;SDS011;37799;52.390;6.136;2023-09-12T03:47:35;32.72;;;14.32;;
37201;SDS011;37799;52.390;6.136;2023-09-12T03:50:01;27.50;;;12.38;;
37201;SDS011;37799;52.390;6.136;2023-09-12T03:52:27;32.05;;;12.65;;
37201;SDS011;37799;52.390;6.136;2023-09-12T03:54:52;28.45;;;12.45;;
37201;SDS011;37799;52.390;6.136;2023-09-12T03:57:17;43.90;;;12.43;;
37201;SDS011;37799;52.390;6.136;2023-09-12T03:59:43;24.13;;;11.48;;
37201;SDS011;37799;52.390;6.136;2023-09-12T04:02:08;26.27;;;11.25;;
37201;SDS011;37799;52.390;6.136;2023-09-12T04:04:33;36.35;;;12.15;;
37201;SDS011;37799;52.390;6.136;2023-09-12T04:06:59;27.42;;;11.57;;
37201;SDS011;37799;52.390;6.136;2023-09-12T04:09:24;29.25;;;11.38;;
37201;SDS011;37799;52.390;6.136;2023-09-12T04:11:50;23.38;;;11.25;;
37201;SDS011;37799;52.390;6.136;2023-09-12T04:14:15;24.77;;;10.60;;
37201;SDS011;37799;52.390;6.136;2023-09-12T04:16:40;23.35;;;10.00;;
37201;SDS011;37799;52.390;6.136;2023-09-12T04:19:06;18.70;;;9.90;;
37201;SDS011;37799;52.390;6.136;2023-09-12T04:21:31;29.30;;;10.45;;
37201;SDS011;37799;52.390;6.136;2023-09-12T04:23:56;32.83;;;10.15;;
37201;SDS011;37799;52.390;6.136;2023-09-12T04:26:21;31.25;;;10.25;;
37201;SDS011;37799;52.390;6.136;2023-09-12T04:28:47;26.98;;;10.00;;
37201;SDS011;37799;52.390;6.136;2023-09-12T04:31:12;39.97;;;9.70;;
37201;SDS011;37799;52.390;6.136;2023-09-12T04:33:38;20.92;;;9.60;;
37201;SDS011;37799;52.390;6.136;2023-09-12T04:36:03;21.83;;;11.37;;
37201;SDS011;37799;52.390;6.136;2023-09-12T04:38:29;22.05;;;10.50;;
37201;SDS011;37799;52.390;6.136;2023-09-12T04:40:59;20.95;;;10.30;;
37201;SDS011;37799;52.390;6.136;2023-09-12T04:43:29;35.83;;;10.98;;
37201;SDS011;37799;52.390;6.136;2023-09-12T04:45:55;20.73;;;10.60;;
37201;SDS011;37799;52.390;6.136;2023-09-12T04:48:20;21.52;;;11.18;;
37201;SDS011;37799;52.390;6.136;2023-09-12T04:50:46;25.83;;;10.68;;
37201;SDS011;37799;52.390;6.136;2023-09-12T04:53:11;22.75;;;11.02;;
37201;SDS011;37799;52.390;6.136;2023-09-12T04:55:36;25.05;;;11.57;;
37201;SDS011;37799;52.390;6.136;2023-09-12T04:58:02;24.02;;;11.10;;
37201;SDS011;37799;52.390;6.136;2023-09-12T05:00:29;23.52;;;11.40;;
37201;SDS011;37799;52.390;6.136;2023-09-12T05:02:54;23.88;;;11.45;;
37201;SDS011;37799;52.390;6.136;2023-09-12T05:05:20;23.98;;;10.93;;
37201;SDS011;37799;52.390;6.136;2023-09-12T05:07:45;22.67;;;10.73;;
37201;SDS011;37799;52.390;6.136;2023-09-12T05:10:10;22.60;;;11.50;;
37201;SDS011;37799;52.390;6.136;2023-09-12T05:12:36;24.98;;;11.00;;
37201;SDS011;37799;52.390;6.136;2023-09-12T05:15:01;20.40;;;10.20;;
37201;SDS011;37799;52.390;6.136;2023-09-12T05:17:27;23.83;;;10.32;;
37201;SDS011;37799;52.390;6.136;2023-09-12T05:19:52;21.63;;;10.68;;
37201;SDS011;37799;52.390;6.136;2023-09-12T05:22:18;22.23;;;10.93;;
37201;SDS011;37799;52.390;6.136;2023-09-12T05:24:43;23.67;;;11.05;;
37201;SDS011;37799;52.390;6.136;2023-09-12T05:27:09;23.35;;;12.25;;
37201;SDS011;37799;52.390;6.136;2023-09-12T05:29:35;22.30;;;10.80;;
37201;SDS011;37799;52.390;6.136;2023-09-12T05:32:01;21.30;;;10.32;;
37201;SDS011;37799;52.390;6.136;2023-09-12T05:34:26;23.42;;;11.02;;
37201;SDS011;37799;52.390;6.136;2023-09-12T05:36:52;24.45;;;11.52;;
37201;SDS011;37799;52.390;6.136;2023-09-12T05:39:17;22.38;;;10.85;;
37201;SDS011;37799;52.390;6.136;2023-09-12T05:41:43;22.40;;;11.00;;
37201;SDS011;37799;52.390;6.136;2023-09-12T05:44:08;25.90;;;12.30;;
37201;SDS011;37799;52.390;6.136;2023-09-12T05:46:34;25.77;;;12.43;;
37201;SDS011;37799;52.390;6.136;2023-09-12T05:49:00;24.33;;;12.05;;
37201;SDS011;37799;52.390;6.136;2023-09-12T05:51:25;29.70;;;13.18;;
37201;SDS011;37799;52.390;6.136;2023-09-12T05:53:50;29.27;;;12.48;;
37201;SDS011;37799;52.390;6.136;2023-09-12T05:56:16;27.33;;;12.45;;
37201;SDS011;37799;52.390;6.136;2023-09-12T05:58:41;26.77;;;11.93;;
37201;SDS011;37799;52.390;6.136;2023-09-12T06:01:08;23.70;;;11.05;;
37201;SDS011;37799;52.390;6.136;2023-09-12T06:03:33;25.67;;;11.52;;
37201;SDS011;37799;52.390;6.136;2023-09-12T06:05:59;20.63;;;10.20;;
37201;SDS011;37799;52.390;6.136;2023-09-12T06:08:24;23.17;;;11.20;;
37201;SDS011;37799;52.390;6.136;2023-09-12T06:10:49;24.17;;;10.60;;
37201;SDS011;37799;52.390;6.136;2023-09-12T06:13:18;22.65;;;10.57;;
37201;SDS011;37799;52.390;6.136;2023-09-12T06:15:44;20.67;;;10.73;;
37201;SDS011;37799;52.390;6.136;2023-09-12T06:18:09;19.98;;;10.13;;
37201;SDS011;37799;52.390;6.136;2023-09-12T06:20:35;23.65;;;11.52;;
37201;SDS011;37799;52.390;6.136;2023-09-12T06:23:00;18.90;;;10.07;;
37201;SDS011;37799;52.390;6.136;2023-09-12T06:25:25;18.77;;;9.45;;
37201;SDS011;37799;52.390;6.136;2023-09-12T06:27:51;24.90;;;10.05;;
37201;SDS011;37799;52.390;6.136;2023-09-12T06:30:16;22.42;;;10.23;;
37201;SDS011;37799;52.390;6.136;2023-09-12T06:32:42;29.45;;;10.77;;
37201;SDS011;37799;52.390;6.136;2023-09-12T06:35:07;21.58;;;9.25;;
37201;SDS011;37799;52.390;6.136;2023-09-12T06:37:35;17.55;;;8.98;;
37201;SDS011;37799;52.390;6.136;2023-09-12T06:40:00;17.35;;;9.73;;
37201;SDS011;37799;52.390;6.136;2023-09-12T06:42:26;19.75;;;9.57;;
37201;SDS011;37799;52.390;6.136;2023-09-12T06:44:51;18.63;;;9.52;;
37201;SDS011;37799;52.390;6.136;2023-09-12T06:47:16;19.27;;;9.40;;
37201;SDS011;37799;52.390;6.136;2023-09-12T06:49:42;23.13;;;9.95;;
37201;SDS011;37799;52.390;6.136;2023-09-12T06:52:07;20.92;;;9.77;;
37201;SDS011;37799;52.390;6.136;2023-09-12T06:54:34;20.35;;;10.20;;
37201;SDS011;37799;52.390;6.136;2023-09-12T06:57:00;18.83;;;9.45;;
37201;SDS011;37799;52.390;6.136;2023-09-12T06:59:25;19.70;;;9.77;;
37201;SDS011;37799;52.390;6.136;2023-09-12T07:01:50;20.83;;;10.30;;
37201;SDS011;37799;52.390;6.136;2023-09-12T07:04:15;22.63;;;10.85;;
37201;SDS011;37799;52.390;6.136;2023-09-12T07:06:41;24.33;;;11.50;;
37201;SDS011;37799;52.390;6.136;2023-09-12T07:09:07;23.52;;;11.55;;
37201;SDS011;37799;52.390;6.136;2023-09-12T07:11:33;24.00;;;11.80;;
37201;SDS011;37799;52.390;6.136;2023-09-12T07:13:59;24.08;;;11.82;;
37201;SDS011;37799;52.390;6.136;2023-09-12T07:16:25;28.35;;;13.90;;
37201;SDS011;37799;52.390;6.136;2023-09-12T07:18:50;32.28;;;15.38;;
37201;SDS011;37799;52.390;6.136;2023-09-12T07:21:16;28.67;;;14.20;;
37201;SDS011;37799;52.390;6.136;2023-09-12T07:23:42;28.88;;;13.95;;
37201;SDS011;37799;52.390;6.136;2023-09-12T07:26:11;30.33;;;14.27;;
37201;SDS011;37799;52.390;6.136;2023-09-12T07:28:37;22.02;;;11.80;;
37201;SDS011;37799;52.390;6.136;2023-09-12T07:31:03;24.73;;;11.93;;
37201;SDS011;37799;52.390;6.136;2023-09-12T07:33:28;23.58;;;12.05;;
37201;SDS011;37799;52.390;6.136;2023-09-12T07:35:53;26.75;;;12.57;;
37201;SDS011;37799;52.390;6.136;2023-09-12T07:38:19;26.80;;;12.23;;
37201;SDS011;37799;52.390;6.136;2023-09-12T07:40:45;25.50;;;12.02;;
37201;SDS011;37799;52.390;6.136;2023-09-12T07:43:11;27.70;;;12.38;;
37201;SDS011;37799;52.390;6.136;2023-09-12T07:45:36;26.27;;;12.67;;
37201;SDS011;37799;52.390;6.136;2023-09-12T07:48:05;24.40;;;11.93;;
37201;SDS011;37799;52.390;6.136;2023-09-12T07:50:32;25.15;;;12.60;;
37201;SDS011;37799;52.390;6.136;2023-09-12T07:52:57;27.98;;;11.98;;
37201;SDS011;37799;52.390;6.136;2023-09-12T07:55:22;25.58;;;12.55;;
37201;SDS011;37799;52.390;6.136;2023-09-12T07:57:48;25.90;;;12.25;;
37201;SDS011;37799;52.390;6.136;2023-09-12T08:00:13;22.92;;;11.60;;
37201;SDS011;37799;52.390;6.136;2023-09-12T08:02:38;23.83;;;11.38;;
37201;SDS011;37799;52.390;6.136;2023-09-12T08:05:04;21.05;;;10.90;;
37201;SDS011;37799;52.390;6.136;2023-09-12T08:07:30;24.92;;;12.02;;
37201;SDS011;37799;52.390;6.136;2023-09-12T08:09:56;22.50;;;10.98;;
37201;SDS011;37799;52.390;6.136;2023-09-12T08:12:24;23.23;;;10.93;;
37201;SDS011;37799;52.390;6.136;2023-09-12T08:14:50;20.08;;;9.75;;
37201;SDS011;37799;52.390;6.136;2023-09-12T08:17:16;21.73;;;11.07;;
37201;SDS011;37799;52.390;6.136;2023-09-12T08:19:42;20.08;;;9.68;;
37201;SDS011;37799;52.390;6.136;2023-09-12T08:22:08;20.67;;;10.40;;
37201;SDS011;37799;52.390;6.136;2023-09-12T08:24:34;18.67;;;8.98;;
37201;SDS011;37799;52.390;6.136;2023-09-12T08:27:00;22.38;;;10.40;;
37201;SDS011;37799;52.390;6.136;2023-09-12T08:29:29;22.42;;;10.23;;
37201;SDS011;37799;52.390;6.136;2023-09-12T08:31:56;22.58;;;9.95;;
37201;SDS011;37799;52.390;6.136;2023-09-12T08:34:21;19.10;;;9.73;;
37201;SDS011;37799;52.390;6.136;2023-09-12T08:36:47;21.25;;;9.43;;
37201;SDS011;37799;52.390;6.136;2023-09-12T08:39:14;21.52;;;9.93;;
37201;SDS011;37799;52.390;6.136;2023-09-12T08:41:42;20.88;;;9.70;;
37201;SDS011;37799;52.390;6.136;2023-09-12T08:44:08;21.38;;;10.10;;
37201;SDS011;37799;52.390;6.136;2023-09-12T08:46:34;20.08;;;9.93;;
37201;SDS011;37799;52.390;6.136;2023-09-12T08:48:59;18.70;;;9.25;;
37201;SDS011;37799;52.390;6.136;2023-09-12T08:51:25;21.20;;;10.05;;
37201;SDS011;37799;52.390;6.136;2023-09-12T08:53:51;21.55;;;10.80;;
37201;SDS011;37799;52.390;6.136;2023-09-12T08:56:20;24.23;;;10.90;;
37201;SDS011;37799;52.390;6.136;2023-09-12T08:58:45;19.23;;;10.57;;
37201;SDS011;37799;52.390;6.136;2023-09-12T09:01:13;17.77;;;9.32;;
37201;SDS011;37799;52.390;6.136;2023-09-12T09:03:39;21.48;;;10.02;;
37201;SDS011;37799;52.390;6.136;2023-09-12T09:06:08;18.30;;;9.20;;
37201;SDS011;37799;52.390;6.136;2023-09-12T09:08:35;15.13;;;8.30;;
37201;SDS011;37799;52.390;6.136;2023-09-12T09:11:02;18.50;;;8.52;;
37201;SDS011;37799;52.390;6.136;2023-09-12T09:13:28;17.50;;;8.80;;
37201;SDS011;37799;52.390;6.136;2023-09-12T09:16:08;17.85;;;9.02;;
37201;SDS011;37799;52.390;6.136;2023-09-12T09:21:23;15.40;;;6.97;;
37201;SDS011;37799;52.390;6.136;2023-09-12T09:23:51;14.25;;;6.72;;
37201;SDS011;37799;52.390;6.136;2023-09-12T09:26:17;12.75;;;7.07;;
37201;SDS011;37799;52.390;6.136;2023-09-12T09:28:42;15.23;;;6.18;;
37201;SDS011;37799;52.390;6.136;2023-09-12T09:31:12;12.65;;;5.85;;
37201;SDS011;37799;52.390;6.136;2023-09-12T09:33:41;11.77;;;5.37;;
37201;SDS011;37799;52.390;6.136;2023-09-12T09:36:13;10.50;;;5.20;;
37201;SDS011;37799;52.390;6.136;2023-09-12T09:38:39;9.30;;;4.93;;
37201;SDS011;37799;52.390;6.136;2023-09-12T09:41:08;11.85;;;5.18;;
37201;SDS011;37799;52.390;6.136;2023-09-12T09:43:33;13.23;;;5.43;;
37201;SDS011;37799;52.390;6.136;2023-09-12T09:45:58;9.75;;;4.60;;
37201;SDS011;37799;52.390;6.136;2023-09-12T09:48:25;9.35;;;4.45;;
37201;SDS011;37799;52.390;6.136;2023-09-12T09:50:52;9.30;;;4.32;;
37201;SDS011;37799;52.390;6.136;2023-09-12T09:53:25;9.73;;;4.25;;
37201;SDS011;37799;52.390;6.136;2023-09-12T09:55:51;10.77;;;4.22;;
37201;SDS011;37799;52.390;6.136;2023-09-12T09:58:16;12.27;;;5.30;;
37201;SDS011;37799;52.390;6.136;2023-09-12T10:00:42;11.73;;;5.30;;
37201;SDS011;37799;52.390;6.136;2023-09-12T10:03:08;12.02;;;4.70;;
37201;SDS011;37799;52.390;6.136;2023-09-12T10:05:36;10.25;;;4.60;;
37201;SDS011;37799;52.390;6.136;2023-09-12T10:08:03;10.50;;;4.90;;
37201;SDS011;37799;52.390;6.136;2023-09-12T10:10:31;10.88;;;4.80;;
37201;SDS011;37799;52.390;6.136;2023-09-12T10:12:59;8.88;;;4.10;;
37201;SDS011;37799;52.390;6.136;2023-09-12T10:15:28;9.63;;;4.65;;
37201;SDS011;37799;52.390;6.136;2023-09-12T10:17:56;11.77;;;5.20;;
37201;SDS011;37799;52.390;6.136;2023-09-12T10:20:24;12.85;;;6.00;;
37201;SDS011;37799;52.390;6.136;2023-09-12T10:22:56;11.52;;;5.40;;
37201;SDS011;37799;52.390;6.136;2023-09-12T10:25:32;11.60;;;5.00;;
37201;SDS011;37799;52.390;6.136;2023-09-12T10:28:00;10.95;;;4.43;;
37201;SDS011;37799;52.390;6.136;2023-09-12T10:30:26;9.25;;;4.13;;
37201;SDS011;37799;52.390;6.136;2023-09-12T10:32:52;10.02;;;4.68;;
37201;SDS011;37799;52.390;6.136;2023-09-12T10:35:17;11.43;;;5.60;;
37201;SDS011;37799;52.390;6.136;2023-09-12T10:37:43;9.98;;;4.60;;
37201;SDS011;37799;52.390;6.136;2023-09-12T10:40:11;9.55;;;4.50;;
37201;SDS011;37799;52.390;6.136;2023-09-12T10:42:38;10.57;;;4.60;;
37201;SDS011;37799;52.390;6.136;2023-09-12T10:45:05;10.93;;;4.85;;
37201;SDS011;37799;52.390;6.136;2023-09-12T10:47:33;11.90;;;5.18;;
37201;SDS011;37799;52.390;6.136;2023-09-12T10:50:00;10.32;;;4.90;;
37201;SDS011;37799;52.390;6.136;2023-09-12T10:52:27;11.32;;;5.50;;
37201;SDS011;37799;52.390;6.136;2023-09-12T10:54:53;9.73;;;4.97;;
37201;SDS011;37799;52.390;6.136;2023-09-12T10:57:19;12.93;;;5.15;;
37201;SDS011;37799;52.390;6.136;2023-09-12T11:00:08;10.13;;;4.72;;
37201;SDS011;37799;52.390;6.136;2023-09-12T11:02:38;11.60;;;5.55;;
37201;SDS011;37799;52.390;6.136;2023-09-12T11:05:05;11.05;;;5.80;;
37201;SDS011;37799;52.390;6.136;2023-09-12T11:12:41;8.52;;;4.30;;
37201;SDS011;37799;52.390;6.136;2023-09-12T11:15:07;12.05;;;5.30;;
37201;SDS011;37799;52.390;6.136;2023-09-12T11:17:38;12.02;;;5.20;;
37201;SDS011;37799;52.390;6.136;2023-09-12T11:20:05;10.40;;;4.57;;
37201;SDS011;37799;52.390;6.136;2023-09-12T11:22:46;9.40;;;4.32;;
37201;SDS011;37799;52.390;6.136;2023-09-12T11:25:22;9.77;;;4.35;;
37201;SDS011;37799;52.390;6.136;2023-09-12T11:30:15;9.70;;;4.47;;
37201;SDS011;37799;52.390;6.136;2023-09-12T11:32:49;11.20;;;4.43;;
37201;SDS011;37799;52.390;6.136;2023-09-12T11:35:17;8.65;;;4.20;;
37201;SDS011;37799;52.390;6.136;2023-09-12T11:37:48;10.63;;;5.25;;
37201;SDS011;37799;52.390;6.136;2023-09-12T11:42:40;10.88;;;5.30;;
37201;SDS011;37799;52.390;6.136;2023-09-12T11:45:11;10.60;;;4.97;;
37201;SDS011;37799;52.390;6.136;2023-09-12T11:47:43;9.75;;;4.07;;
37201;SDS011;37799;52.390;6.136;2023-09-12T11:52:58;8.98;;;4.25;;
37201;SDS011;37799;52.390;6.136;2023-09-12T11:55:35;10.57;;;4.53;;
37201;SDS011;37799;52.390;6.136;2023-09-12T11:58:16;11.05;;;5.63;;
37201;SDS011;37799;52.390;6.136;2023-09-12T12:00:46;13.68;;;5.45;;
37201;SDS011;37799;52.390;6.136;2023-09-12T12:03:14;11.25;;;5.30;;
37201;SDS011;37799;52.390;6.136;2023-09-12T12:05:40;11.13;;;4.63;;
37201;SDS011;37799;52.390;6.136;2023-09-12T12:08:13;12.98;;;6.03;;
37201;SDS011;37799;52.390;6.136;2023-09-12T12:10:39;11.55;;;6.18;;
37201;SDS011;37799;52.390;6.136;2023-09-12T12:13:06;9.90;;;4.88;;
37201;SDS011;37799;52.390;6.136;2023-09-12T12:15:35;11.50;;;5.55;;
37201;SDS011;37799;52.390;6.136;2023-09-12T12:18:00;12.60;;;5.13;;
37201;SDS011;37799;52.390;6.136;2023-09-12T12:20:26;12.37;;;4.13;;
37201;SDS011;37799;52.390;6.136;2023-09-12T12:22:54;10.05;;;3.17;;
37201;SDS011;37799;52.390;6.136;2023-09-12T12:25:19;5.87;;;2.17;;
37201;SDS011;37799;52.390;6.136;2023-09-12T12:27:44;4.47;;;1.67;;
37201;SDS011;37799;52.390;6.136;2023-09-12T12:30:11;6.07;;;2.63;;
37201;SDS011;37799;52.390;6.136;2023-09-12T12:35:07;9.40;;;2.20;;
37201;SDS011;37799;52.390;6.136;2023-09-12T12:37:33;7.05;;;2.58;;
37201;SDS011;37799;52.390;6.136;2023-09-12T12:40:00;9.80;;;3.20;;
37201;SDS011;37799;52.390;6.136;2023-09-12T12:42:28;7.82;;;3.00;;
37201;SDS011;37799;52.390;6.136;2023-09-12T12:44:59;6.82;;;2.83;;
37201;SDS011;37799;52.390;6.136;2023-09-12T12:47:24;8.65;;;3.00;;
37201;SDS011;37799;52.390;6.136;2023-09-12T12:49:50;6.88;;;2.83;;
37201;SDS011;37799;52.390;6.136;2023-09-12T12:52:18;6.10;;;2.47;;
37201;SDS011;37799;52.390;6.136;2023-09-12T12:54:47;7.18;;;2.72;;
37201;SDS011;37799;52.390;6.136;2023-09-12T12:57:12;6.90;;;2.80;;
37201;SDS011;37799;52.390;6.136;2023-09-12T12:59:44;6.88;;;3.08;;
37201;SDS011;37799;52.390;6.136;2023-09-12T13:02:10;7.25;;;3.00;;
37201;SDS011;37799;52.390;6.136;2023-09-12T13:04:36;8.13;;;3.43;;
37201;SDS011;37799;52.390;6.136;2023-09-12T13:07:02;9.00;;;4.10;;
37201;SDS011;37799;52.390;6.136;2023-09-12T13:09:28;9.60;;;4.18;;
37201;SDS011;37799;52.390;6.136;2023-09-12T13:11:53;7.57;;;3.37;;
37201;SDS011;37799;52.390;6.136;2023-09-12T13:14:19;9.43;;;4.23;;
37201;SDS011;37799;52.390;6.136;2023-09-12T13:16:44;8.88;;;4.25;;
37201;SDS011;37799;52.390;6.136;2023-09-12T13:19:10;9.13;;;4.00;;
37201;SDS011;37799;52.390;6.136;2023-09-12T13:21:38;7.75;;;3.40;;
37201;SDS011;37799;52.390;6.136;2023-09-12T13:24:04;9.27;;;3.88;;
37201;SDS011;37799;52.390;6.136;2023-09-12T13:26:29;8.02;;;3.38;;
37201;SDS011;37799;52.390;6.136;2023-09-12T13:28:54;7.45;;;3.40;;
37201;SDS011;37799;52.390;6.136;2023-09-12T13:31:20;9.77;;;3.37;;
37201;SDS011;37799;52.390;6.136;2023-09-12T13:33:45;9.17;;;2.57;;
37201;SDS011;37799;52.390;6.136;2023-09-12T13:36:10;6.13;;;2.40;;
37201;SDS011;37799;52.390;6.136;2023-09-12T13:38:35;8.00;;;3.42;;
37201;SDS011;37799;52.390;6.136;2023-09-12T13:41:01;7.20;;;2.97;;
37201;SDS011;37799;52.390;6.136;2023-09-12T13:43:26;8.52;;;2.70;;
37201;SDS011;37799;52.390;6.136;2023-09-12T13:45:53;7.32;;;2.45;;
37201;SDS011;37799;52.390;6.136;2023-09-12T13:48:18;6.40;;;2.30;;
37201;SDS011;37799;52.390;6.136;2023-09-12T13:50:44;8.82;;;3.65;;
37201;SDS011;37799;52.390;6.136;2023-09-12T13:53:09;7.27;;;2.83;;
37201;SDS011;37799;52.390;6.136;2023-09-12T13:55:35;8.57;;;3.65;;
37201;SDS011;37799;52.390;6.136;2023-09-12T13:58:02;9.13;;;3.22;;
37201;SDS011;37799;52.390;6.136;2023-09-12T14:00:28;9.45;;;3.60;;
37201;SDS011;37799;52.390;6.136;2023-09-12T14:02:54;8.68;;;3.08;;
37201;SDS011;37799;52.390;6.136;2023-09-12T14:05:21;7.25;;;3.00;;
37201;SDS011;37799;52.390;6.136;2023-09-12T14:07:46;8.75;;;2.97;;
37201;SDS011;37799;52.390;6.136;2023-09-12T14:10:12;7.93;;;3.47;;
37201;SDS011;37799;52.390;6.136;2023-09-12T14:12:38;9.02;;;3.13;;
37201;SDS011;37799;52.390;6.136;2023-09-12T14:15:03;8.98;;;3.92;;
37201;SDS011;37799;52.390;6.136;2023-09-12T14:17:31;8.38;;;3.33;;
37201;SDS011;37799;52.390;6.136;2023-09-12T14:19:56;8.37;;;3.50;;
37201;SDS011;37799;52.390;6.136;2023-09-12T14:22:22;7.00;;;2.90;;
37201;SDS011;37799;52.390;6.136;2023-09-12T14:24:47;7.85;;;3.35;;
37201;SDS011;37799;52.390;6.136;2023-09-12T14:27:12;9.00;;;3.72;;
37201;SDS011;37799;52.390;6.136;2023-09-12T14:29:38;8.37;;;3.60;;
37201;SDS011;37799;52.390;6.136;2023-09-12T14:32:03;7.70;;;3.17;;
37201;SDS011;37799;52.390;6.136;2023-09-12T14:34:29;8.85;;;3.45;;
37201;SDS011;37799;52.390;6.136;2023-09-12T14:36:57;8.45;;;3.60;;
37201;SDS011;37799;52.390;6.136;2023-09-12T14:39:22;11.45;;;3.30;;
37201;SDS011;37799;52.390;6.136;2023-09-12T14:41:48;7.55;;;3.55;;
37201;SDS011;37799;52.390;6.136;2023-09-12T14:44:18;6.05;;;2.78;;
37201;SDS011;37799;52.390;6.136;2023-09-12T14:46:44;8.45;;;3.05;;